Time;durP1;ratioP1;P1;durP2;ratioP2;P2;SDS_P1;SDS_P2;PMS_P1;PMS_P2;Temp;Humidity;BMP_temperature;BMP_pressure;BME280_temperature;BME280_humidity;BME280_pressure;Samples;Min_cycle;Max_cycle;Signal;HPM_P1;HPM_P2
2022/06/09 00:01:55;;;;;;;18.67;13.38;;;;;;;19.80;93.92;98921.34;4479412;31;35210;-77
2022/06/09 00:04:42;;;;;;;19.70;13.43;;;;;;;18.81;99.04;98909.19;4479145;31;34478;-78
2022/06/09 00:07:28;;;;;;;14.55;12.50;;;;;;;18.47;100.00;98916.78;4478685;31;36010;-77
2022/06/09 00:13:39;;;;;;;22.17;15.65;;;;;;;18.39;100.00;98917.91;4481347;32;33315;-77
2022/06/09 00:16:39;;;;;;;23.80;15.98;;;;;;;18.98;100.00;98926.34;4467302;32;35573;-77
2022/06/09 00:19:33;;;;;;;24.30;15.32;;;;;;;19.50;97.48;98925.13;4477058;31;34856;-77
2022/06/09 00:22:32;;;;;;;23.67;15.63;;;;;;;19.19;99.09;98926.53;4468032;31;34631;-78
2022/06/09 00:25:27;;;;;;;20.08;14.93;;;;;;;19.30;97.53;98926.59;4468792;32;33824;-78
2022/06/09 00:28:14;;;;;;;16.95;13.60;;;;;;;19.41;97.83;98927.47;4468843;32;34679;-77
2022/06/09 00:31:02;;;;;;;48.17;15.77;;;;;;;19.81;94.00;98927.69;4467822;32;35175;-77
2022/06/09 00:33:49;;;;;;;57.08;16.37;;;;;;;19.24;96.64;98917.84;4459708;32;35495;-77
2022/06/09 00:36:36;;;;;;;34.63;17.20;;;;;;;18.83;100.00;98908.78;4463484;32;34905;-77
2022/06/09 00:39:23;;;;;;;137.43;23.83;;;;;;;19.02;98.95;98910.53;4461909;32;34671;-77
2022/06/09 00:42:10;;;;;;;174.32;26.73;;;;;;;17.46;100.00;98914.78;4468084;32;34971;-78
2022/06/09 00:44:56;;;;;;;57.33;23.15;;;;;;;16.26;100.00;98919.91;4466585;32;34611;-77
2022/06/09 00:47:42;;;;;;;40.70;20.48;;;;;;;17.04;100.00;98912.97;4470498;32;33810;-78
2022/06/09 00:50:30;;;;;;;78.97;20.58;;;;;;;18.23;100.00;98915.34;4465270;32;35598;-78
2022/06/09 00:53:22;;;;;;;25.77;18.67;;;;;;;17.76;100.00;98916.75;4452440;32;36589;-77
2022/06/09 00:56:11;;;;;;;53.85;18.87;;;;;;;18.22;100.00;98910.19;4462233;32;33552;-77
2022/06/09 00:58:58;;;;;;;24.90;19.45;;;;;;;18.42;100.00;98912.38;4463509;32;34255;-77
2022/06/09 01:01:45;;;;;;;25.30;18.05;;;;;;;18.84;100.00;98919.53;4463313;32;35597;-78
2022/06/09 01:04:33;;;;;;;62.03;18.95;;;;;;;18.92;100.00;98912.03;4461321;32;35674;-78
2022/06/09 01:07:26;;;;;;;34.08;18.42;;;;;;;19.05;100.00;98918.09;4463555;32;34347;-78
2022/06/09 01:10:13;;;;;;;52.62;19.80;;;;;;;19.02;100.00;98916.09;4461589;32;33066;-78
2022/06/09 01:13:00;;;;;;;24.02;18.00;;;;;;;18.43;100.00;98910.37;4468211;32;34668;-77
2022/06/09 01:15:55;;;;;;;28.35;18.48;;;;;;;18.81;100.00;98914.75;4466079;32;34553;-77
2022/06/09 01:18:57;;;;;;;39.63;18.12;;;;;;;18.84;100.00;98911.19;4463183;32;35147;-77
2022/06/09 01:21:59;;;;;;;53.47;19.25;;;;;;;18.66;100.00;98905.44;4465506;32;34249;-78
2022/06/09 01:24:55;;;;;;;37.78;18.00;;;;;;;18.27;100.00;98904.28;4463853;32;34297;-77
2022/06/09 01:27:59;;;;;;;23.98;17.75;;;;;;;18.75;100.00;98907.12;4463986;32;35946;-77
2022/06/09 01:30:56;;;;;;;23.00;18.75;;;;;;;18.50;100.00;98901.34;4464185;32;34694;-77
2022/06/09 01:34:17;;;;;;;22.70;18.65;;;;;;;17.97;100.00;98891.28;4475188;32;34157;-77
2022/06/09 01:37:09;;;;;;;23.40;18.95;;;;;;;17.69;100.00;98888.94;4389245;32;34222;-77
2022/06/09 01:39:58;;;;;;;23.62;18.60;;;;;;;18.33;100.00;98883.38;4466780;32;34997;-77
2022/06/09 01:42:54;;;;;;;24.35;19.42;;;;;;;18.87;100.00;98891.00;4467950;32;34576;-77
2022/06/09 01:45:51;;;;;;;24.83;18.80;;;;;;;18.25;100.00;98896.34;4479427;31;33889;-78
2022/06/09 01:48:38;;;;;;;22.45;18.10;;;;;;;18.39;100.00;98890.16;4480453;31;34636;-77
2022/06/09 01:51:26;;;;;;;22.13;18.65;;;;;;;18.75;100.00;98890.50;4467983;32;34670;-78
2022/06/09 01:54:30;;;;;;;21.45;17.58;;;;;;;19.16;100.00;98893.97;4466393;31;35457;-77
2022/06/09 01:57:20;;;;;;;20.85;17.27;;;;;;;19.47;97.85;98892.56;4468014;32;35177;-77
2022/06/09 02:00:14;;;;;;;23.50;18.95;;;;;;;19.39;98.28;98898.47;4468011;32;34287;-77
2022/06/09 02:03:05;;;;;;;28.10;19.65;;;;;;;18.66;100.00;98893.56;4464963;31;35032;-77
2022/06/09 02:05:54;;;;;;;26.45;20.35;;;;;;;17.00;100.00;98901.06;4467717;32;33864;-77
2022/06/09 02:08:41;;;;;;;23.77;18.67;;;;;;;18.12;100.00;98889.47;4466747;32;34186;-77
2022/06/09 02:11:28;;;;;;;22.52;17.50;;;;;;;18.41;100.00;98899.69;4479705;32;35525;-77
2022/06/09 02:14:17;;;;;;;23.65;18.33;;;;;;;19.15;99.01;98900.69;4476671;31;35948;-77
2022/06/09 02:17:06;;;;;;;27.83;20.17;;;;;;;18.59;100.00;98897.06;4467590;32;34656;-78
2022/06/09 02:19:53;;;;;;;26.15;18.92;;;;;;;18.18;100.00;98901.81;4455446;32;34235;-78
2022/06/09 02:22:40;;;;;;;35.00;21.23;;;;;;;17.83;100.00;98889.16;4467720;32;35552;-77
2022/06/09 02:25:27;;;;;;;26.83;20.37;;;;;;;17.27;100.00;98892.75;4467723;32;34645;-77
2022/06/09 02:28:15;;;;;;;25.75;19.33;;;;;;;17.47;100.00;98899.75;4477684;31;35542;-77
2022/06/09 02:31:03;;;;;;;29.33;20.67;;;;;;;18.15;100.00;98897.03;4468123;32;33729;-77
2022/06/09 02:33:51;;;;;;;23.30;18.52;;;;;;;18.60;100.00;98901.44;4479692;32;34609;-77
2022/06/09 02:36:38;;;;;;;25.83;19.15;;;;;;;18.90;100.00;98896.94;4465757;31;34645;-77
2022/06/09 02:39:24;;;;;;;23.10;18.48;;;;;;;18.69;100.00;98898.34;4477822;32;35204;-77
2022/06/09 02:42:11;;;;;;;24.75;17.98;;;;;;;18.97;100.00;98897.81;4465107;31;34145;-77
2022/06/09 02:45:03;;;;;;;28.27;20.42;;;;;;;18.74;100.00;98888.91;4467310;32;34598;-78
2022/06/09 02:47:49;;;;;;;;;;;;;;;19.12;100.00;98903.47;4479992;32;35057;-77
2022/06/09 02:50:36;;;;;;;30.73;20.88;;;;;;;18.44;100.00;98898.09;4467071;32;34870;-77
2022/06/09 02:53:24;;;;;;;29.33;21.33;;;;;;;18.04;100.00;98898.88;4466505;32;34207;-78
2022/06/09 02:56:10;;;;;;;27.90;19.77;;;;;;;18.53;100.00;98898.63;4465199;32;35254;-77
2022/06/09 02:58:57;;;;;;;30.00;20.33;;;;;;;18.78;100.00;98909.16;4461911;31;34542;-78
2022/06/09 03:01:44;;;;;;;32.53;21.90;;;;;;;18.73;100.00;98909.50;4479325;32;35666;-77
2022/06/09 03:04:31;;;;;;;29.33;21.37;;;;;;;18.42;100.00;98906.81;4465893;32;34327;-77
2022/06/09 03:07:18;;;;;;;25.83;19.17;;;;;;;18.41;100.00;98902.47;4479248;32;34610;-77
2022/06/09 03:10:06;;;;;;;26.10;19.52;;;;;;;19.05;100.00;98904.22;4479273;32;35073;-77
2022/06/09 03:13:06;;;;;;;30.95;21.20;;;;;;;19.47;99.04;98909.25;4465218;32;34444;-77
2022/06/09 03:15:54;;;;;;;33.45;21.62;;;;;;;19.62;97.30;98904.56;4478514;32;34009;-77
2022/06/09 03:18:42;;;;;;;35.10;22.30;;;;;;;19.72;96.79;98911.37;4480840;32;34576;-77
2022/06/09 03:21:29;;;;;;;34.55;22.60;;;;;;;19.60;98.35;98914.47;4480909;32;35984;-77
2022/06/09 03:24:16;;;;;;;49.95;26.40;;;;;;;19.72;98.10;98906.62;4479118;31;34544;-77
2022/06/09 03:27:02;;;;;;;49.28;26.85;;;;;;;19.06;100.00;98905.81;4481491;32;34207;-77
2022/06/09 03:29:49;;;;;;;44.10;27.10;;;;;;;18.95;100.00;98899.38;4479231;32;35465;-78
2022/06/09 03:32:35;;;;;;;44.58;27.20;;;;;;;19.31;100.00;98903.97;4458416;32;35912;-77
2022/06/09 03:35:21;;;;;;;50.17;27.52;;;;;;;19.58;100.00;98895.41;4466621;31;35626;-77
2022/06/09 03:38:08;;;;;;;41.75;25.77;;;;;;;19.25;100.00;98902.75;4481386;32;34154;-77
2022/06/09 03:40:55;;;;;;;58.72;28.48;;;;;;;19.68;100.00;98903.03;4465214;32;34438;-77
2022/06/09 03:43:41;;;;;;;47.72;27.90;;;;;;;19.20;100.00;98905.09;4477834;31;34948;-77
2022/06/09 03:46:27;;;;;;;43.67;27.83;;;;;;;18.75;100.00;98894.06;4479286;31;35389;-78
2022/06/09 03:49:14;;;;;;;45.40;27.45;;;;;;;18.95;100.00;98894.59;4477796;31;35169;-77
2022/06/09 03:52:00;;;;;;;43.28;27.27;;;;;;;19.54;100.00;98905.69;4480917;31;34749;-77
2022/06/09 03:54:53;;;;;;;39.97;26.92;;;;;;;19.65;100.00;98894.66;4458986;32;35036;-77
2022/06/09 03:57:41;;;;;;;43.47;26.70;;;;;;;19.93;100.00;98899.56;4480450;32;34713;-77
2022/06/09 04:00:31;;;;;;;41.25;27.50;;;;;;;20.21;100.00;98902.44;4479867;31;34407;-77
2022/06/09 04:03:20;;;;;;;43.70;27.50;;;;;;;19.32;100.00;98897.25;4456256;32;34692;-77
2022/06/09 04:06:12;;;;;;;45.35;26.05;;;;;;;19.90;100.00;98903.91;4460929;31;34971;-77
2022/06/09 04:08:59;;;;;;;40.83;24.35;;;;;;;20.39;98.29;98902.44;4466003;32;34222;-77
2022/06/09 04:11:45;;;;;;;42.15;26.10;;;;;;;20.02;99.65;98902.75;4476432;31;34313;-77
2022/06/09 04:14:33;;;;;;;40.78;24.75;;;;;;;19.84;100.00;98894.38;4451903;32;34312;-78
2022/06/09 04:17:19;;;;;;;41.63;24.65;;;;;;;19.69;100.00;98901.81;4476917;31;35267;-78
2022/06/09 04:20:07;;;;;;;40.12;24.45;;;;;;;20.22;100.00;98892.09;4467593;32;34574;-78
2022/06/09 04:22:55;;;;;;;39.38;25.45;;;;;;;20.44;98.86;98898.50;4478374;31;34188;-78
2022/06/09 04:25:44;;;;;;;37.97;25.02;;;;;;;20.58;98.68;98898.53;4474797;31;34216;-77
2022/06/09 04:28:31;;;;;;;38.90;25.48;;;;;;;20.77;97.65;98896.56;4456821;31;198992;-78
2022/06/09 04:31:20;;;;;;;37.45;23.52;;;;;;;20.88;93.54;98900.91;4461993;31;34275;-78
2022/06/09 04:34:24;;;;;;;36.05;23.60;;;;;;;20.72;96.26;98903.34;4456472;31;34298;-78
2022/06/09 04:37:11;;;;;;;36.10;24.40;;;;;;;20.85;95.04;98914.84;4466663;32;34709;-77
2022/06/09 04:40:01;;;;;;;38.00;24.50;;;;;;;20.65;96.49;98906.88;4479286;32;34621;-78
2022/06/09 04:42:47;;;;;;;35.90;23.73;;;;;;;20.36;100.00;98919.16;4479062;31;34534;-78
2022/06/09 04:45:35;;;;;;;39.97;25.95;;;;;;;20.33;99.10;98919.94;4480776;32;34188;-78
2022/06/09 04:48:23;;;;;;;40.42;26.00;;;;;;;20.00;100.00;98919.03;4469068;32;35287;-78
2022/06/09 04:51:13;;;;;;;37.65;25.70;;;;;;;20.10;100.00;98929.41;4477941;31;34943;-78
2022/06/09 04:53:59;;;;;;;36.55;24.92;;;;;;;;;;4479970;32;35019;-78
2022/06/09 04:56:47;;;;;;;34.25;23.33;;;;;;;20.20;100.00;98934.19;4474377;31;34659;-78
2022/06/09 04:59:34;;;;;;;30.88;21.98;;;;;;;20.94;96.69;98929.16;4468692;32;34680;-77
2022/06/09 05:02:20;;;;;;;25.73;20.70;;;;;;;21.18;95.63;98932.34;4468890;32;34958;-77
2022/06/09 05:05:20;;;;;;;27.45;20.02;;;;;;;21.22;94.91;98922.78;4477027;31;34695;-78
2022/06/09 05:08:11;;;;;;;23.60;18.77;;;;;;;20.99;96.46;98917.63;4478043;31;34446;-78
2022/06/09 05:10:58;;;;;;;24.33;18.50;;;;;;;21.14;96.27;98934.34;4465441;32;34820;-78
2022/06/09 05:13:47;;;;;;;27.58;20.62;;;;;;;21.18;96.83;98924.00;4467928;32;35008;-78
2022/06/09 05:16:38;;;;;;;22.62;18.48;;;;;;;21.33;96.31;98931.12;4468313;32;34578;-78
2022/06/09 05:19:25;;;;;;;27.75;19.73;;;;;;;21.58;94.21;98928.31;4479050;32;35644;-78
2022/06/09 05:22:13;;;;;;;25.90;20.05;;;;;;;20.84;98.56;98927.19;4465984;32;35514;-79
2022/06/09 05:25:00;;;;;;;18.52;14.90;;;;;;;21.15;98.31;98930.38;4467597;32;34554;-78
2022/06/09 05:27:52;;;;;;;22.50;16.35;;;;;;;21.26;96.30;98931.94;4480442;32;35194;-78
2022/06/09 05:30:40;;;;;;;19.30;14.80;;;;;;;21.02;94.88;98930.75;4464578;32;34269;-78
2022/06/09 05:33:28;;;;;;;19.33;16.17;;;;;;;21.50;91.74;98949.84;4455955;32;34520;-77
2022/06/09 05:36:17;;;;;;;21.15;16.25;;;;;;;21.45;94.68;98941.87;4479502;32;35645;-78
2022/06/09 05:45:19;;;;;;;18.23;15.65;;;;;;;21.47;92.69;98950.63;4467899;32;34455;-78
2022/06/09 05:48:06;;;;;;;20.45;16.67;;;;;;;21.97;90.50;98958.88;4466293;32;35635;-79
2022/06/09 05:50:53;;;;;;;21.75;17.62;;;;;;;21.75;91.47;98957.34;4465865;32;35290;-78
2022/06/09 05:53:41;;;;;;;21.23;17.20;;;;;;;21.65;93.50;98955.38;4466690;32;34445;-79
2022/06/09 05:56:28;;;;;;;20.37;16.90;;;;;;;21.83;93.34;98952.53;4477386;32;35267;-79
2022/06/09 05:59:15;;;;;;;22.92;18.25;;;;;;;22.07;92.11;98953.66;4479240;32;34594;-79
2022/06/09 06:02:03;;;;;;;26.95;20.90;;;;;;;22.20;88.70;98954.81;4479375;32;34499;-79
2022/06/09 06:04:51;;;;;;;26.23;19.83;;;;;;;22.34;85.68;98954.75;4466338;32;35703;-77
2022/06/09 06:07:38;;;;;;;24.90;19.35;;;;;;;22.00;87.29;98957.28;4479129;32;34645;-78
2022/06/09 06:10:26;;;;;;;22.92;18.95;;;;;;;22.02;86.93;98960.44;4465065;32;35119;-78
2022/06/09 06:13:13;;;;;;;23.95;18.70;;;;;;;22.14;86.61;98961.97;4461224;31;35455;-78
2022/06/09 06:16:02;;;;;;;27.25;18.83;;;;;;;22.20;86.98;98977.94;4440536;32;34883;-78
2022/06/09 06:19:13;;;;;;;24.00;19.67;;;;;;;22.21;88.91;98973.16;4478014;32;34605;-79
2022/06/09 06:22:00;;;;;;;27.83;20.45;;;;;;;22.27;88.98;98974.31;4455537;32;35015;-79
2022/06/09 06:24:47;;;;;;;29.70;23.50;;;;;;;22.33;90.02;98975.47;4467791;32;34298;-79
2022/06/09 06:27:34;;;;;;;33.85;25.05;;;;;;;22.15;88.13;98972.75;4480185;32;34230;-79
2022/06/09 06:30:31;;;;;;;42.92;27.35;;;;;;;22.29;87.10;98977.50;4478811;32;34329;-79
2022/06/09 06:33:18;;;;;;;35.03;25.77;;;;;;;22.54;85.85;98979.34;4476571;31;34595;-79
2022/06/09 06:36:06;;;;;;;30.25;22.80;;;;;;;22.56;86.45;98960.97;4480589;32;35511;-79
2022/06/09 06:38:58;;;;;;;28.50;21.80;;;;;;;22.27;85.92;98971.53;4480218;32;34782;-79
2022/06/09 06:41:46;;;;;;;30.10;21.52;;;;;;;22.56;81.41;98965.78;4468094;32;34793;-79
2022/06/09 06:44:33;;;;;;;29.35;21.95;;;;;;;22.68;81.25;98968.09;4466715;32;34933;-79
2022/06/09 06:47:20;;;;;;;26.45;20.75;;;;;;;22.36;84.47;98976.66;4479908;32;34833;-79
2022/06/09 06:50:09;;;;;;;24.67;17.85;;;;;;;21.98;88.08;98971.59;4468196;32;35932;-79
2022/06/09 06:52:58;;;;;;;19.42;15.93;;;;;;;21.85;90.10;98967.66;4482003;32;34449;-79
2022/06/09 06:55:45;;;;;;;17.27;14.35;;;;;;;22.07;89.54;98971.19;4481858;32;36400;-79
2022/06/09 06:58:32;;;;;;;16.17;12.60;;;;;;;22.25;87.72;98968.31;4458226;31;34347;-80
2022/06/09 07:01:30;;;;;;;13.93;11.12;;;;;;;22.06;88.52;98971.56;4461732;32;34165;-79
2022/06/09 07:04:17;;;;;;;12.65;10.07;;;;;;;22.47;87.37;98980.19;4481421;32;35468;-79
2022/06/09 07:07:04;;;;;;;11.85;8.82;;;;;;;22.74;86.23;98979.63;4469560;32;34933;-78
2022/06/09 07:09:51;;;;;;;11.80;8.30;;;;;;;22.41;86.95;98988.19;4469782;32;34330;-79
2022/06/09 07:12:40;;;;;;;11.57;7.75;;;;;;;22.13;86.21;98994.66;4458229;32;35124;-79
2022/06/09 07:15:27;;;;;;;12.40;8.52;;;;;;;21.89;88.27;98996.34;4469355;32;35220;-79
2022/06/09 07:18:17;;;;;;;14.13;9.07;;;;;;;22.33;86.53;98997.78;4469867;32;34945;-79
2022/06/09 07:21:05;;;;;;;11.63;8.88;;;;;;;21.94;88.97;98993.16;4469043;32;33094;-79
2022/06/09 07:23:51;;;;;;;12.90;9.55;;;;;;;21.83;91.22;98981.22;4469376;32;34743;-78
2022/06/09 07:26:38;;;;;;;19.42;11.32;;;;;;;21.86;91.96;98980.44;4472861;32;34736;-79
2022/06/09 07:29:29;;;;;;;16.52;9.82;;;;;;;21.52;95.09;98978.09;4470332;32;34843;-79
2022/06/09 07:32:23;;;;;;;13.00;9.15;;;;;;;22.08;90.24;98978.34;4481551;32;35052;-80
2022/06/09 07:35:15;;;;;;;11.82;8.25;;;;;;;22.07;91.43;98993.50;4469576;32;33871;-78
2022/06/09 07:38:04;;;;;;;;;;;;;;;21.75;90.75;98985.22;4458223;32;35295;-77
2022/06/09 07:40:52;;;;;;;14.07;8.50;;;;;;;22.07;89.21;98992.69;4468249;31;35295;-76
2022/06/09 07:44:03;;;;;;;12.93;8.27;;;;;;;22.12;89.88;98997.88;4471743;32;34782;-78
2022/06/09 07:46:51;;;;;;;14.27;7.87;;;;;;;21.87;93.57;98993.16;4469401;32;35257;-80
2022/06/09 07:49:37;;;;;;;12.13;7.72;;;;;;;22.12;93.64;98997.88;4469608;32;34247;-79
2022/06/09 07:52:24;;;;;;;10.10;7.05;;;;;;;21.77;97.42;98988.41;4481380;32;35050;-81
2022/06/09 07:55:13;;;;;;;7.82;5.00;;;;;;;22.08;100.00;98983.91;4480702;31;35579;-80
2022/06/09 07:58:12;;;;;;;6.22;5.00;;;;;;;21.68;97.11;98986.03;4470642;32;34211;-81
2022/06/09 08:00:58;;;;;;;5.97;4.30;;;;;;;22.19;95.41;98984.69;4458668;32;34569;-81
2022/06/09 08:03:46;;;;;;;6.57;4.55;;;;;;;22.55;90.28;98986.53;4480710;32;35696;-80
2022/06/09 08:06:38;;;;;;;7.12;4.97;;;;;;;22.42;91.76;98984.19;4469733;32;34202;-80
2022/06/09 08:09:25;;;;;;;8.43;4.70;;;;;;;22.95;85.89;98987.87;4468939;32;33722;-78
2022/06/09 08:12:12;;;;;;;9.23;6.18;;;;;;;22.19;89.59;98987.50;4481016;32;34317;-77
2022/06/09 08:15:02;;;;;;;8.68;6.53;;;;;;;22.98;89.11;98980.69;4481124;32;35977;-78
2022/06/09 08:17:49;;;;;;;8.93;6.43;;;;;;;23.01;88.56;98979.87;4469432;32;35466;-77
2022/06/09 08:20:39;;;;;;;8.73;6.15;;;;;;;22.76;85.77;98978.00;4480568;31;34372;-76
2022/06/09 08:23:43;;;;;;;8.38;6.00;;;;;;;22.50;89.27;98984.94;4470488;32;34969;-76
2022/06/09 08:26:31;;;;;;;7.95;5.82;;;;;;;23.16;84.20;98981.31;4481169;32;35644;-76
2022/06/09 08:29:18;;;;;;;8.07;5.87;;;;;;;22.89;87.84;98973.53;4469336;32;35527;-76
2022/06/09 08:32:05;;;;;;;14.13;11.65;;;;;;;23.45;82.79;98969.88;4469121;32;34756;-76
2022/06/09 08:34:52;;;;;;;7.95;5.45;;;;;;;23.00;83.86;98978.28;4467929;31;34546;-76
2022/06/09 08:37:38;;;;;;;5.37;3.50;;;;;;;23.47;82.78;98973.06;4478087;31;35054;-76
2022/06/09 08:40:56;;;;;;;4.45;3.60;;;;;;;23.61;77.11;98980.53;4480209;31;34800;-76
2022/06/09 08:44:01;;;;;;;4.68;3.35;;;;;;;23.59;78.28;98975.34;4458481;32;34337;-77
2022/06/09 08:46:50;;;;;;;6.90;4.03;;;;;;;23.65;81.97;98984.88;4479869;32;34704;-77
2022/06/09 08:50:03;;;;;;;7.35;4.40;;;;;;;22.77;83.14;98970.41;4469313;32;35104;-77
2022/06/09 08:52:54;;;;;;;6.18;4.37;;;;;;;23.18;84.82;98975.34;4457383;32;35397;-77
2022/06/09 08:55:48;;;;;;;5.20;3.72;;;;;;;22.77;87.99;98964.84;4469052;32;34104;-77
2022/06/09 08:58:39;;;;;;;8.75;5.50;;;;;;;23.06;82.77;98971.06;4481127;32;34692;-77
2022/06/09 09:01:56;;;;;;;8.20;5.45;;;;;;;23.33;82.68;98965.63;4466920;32;34874;-77
2022/06/09 09:04:45;;;;;;;7.75;4.95;;;;;;;23.41;84.35;98974.72;4468927;32;34589;-77
2022/06/09 09:07:42;;;;;;;10.52;5.82;;;;;;;23.16;80.35;98967.34;4469255;32;34788;-78
2022/06/09 09:10:55;;;;;;;9.80;5.75;;;;;;;22.86;82.61;98960.38;4461705;32;34376;-77
2022/06/09 09:13:59;;;;;;;8.60;5.78;;;;;;;23.45;78.43;98953.94;4481185;32;36083;-77
2022/06/09 09:17:38;;;;;;;9.38;6.07;;;;;;;23.33;77.06;98958.00;4459148;32;34552;-78
2022/06/09 09:20:37;;;;;;;7.40;5.30;;;;;;;23.05;83.31;98958.28;4463553;32;34263;-78
2022/06/09 09:23:50;;;;;;;9.35;6.07;;;;;;;23.44;80.98;98945.94;4457889;32;34747;-78
2022/06/09 09:27:15;;;;;;;11.15;6.20;;;;;;;23.51;78.81;98945.88;4480862;32;34557;-79
2022/06/09 09:30:18;;;;;;;8.32;5.57;;;;;;;23.87;80.20;98951.09;4480553;32;34217;-79
2022/06/09 09:33:13;;;;;;;6.77;4.50;;;;;;;24.02;79.67;98952.50;4454045;32;34842;-79
2022/06/09 09:36:05;;;;;;;8.68;5.60;;;;;;;23.74;72.46;98940.47;4460988;32;34622;-80
2022/06/09 09:38:58;;;;;;;6.55;4.70;;;;;;;23.52;79.42;98947.47;4473053;31;35910;-79
2022/06/09 09:41:45;;;;;;;;;;;;;;;24.20;73.29;98944.69;4462352;32;34856;-80
2022/06/09 09:44:33;;;;;;;6.22;4.40;;;;;;;24.35;73.17;98945.28;4464328;32;34973;-80
2022/06/09 09:47:26;;;;;;;7.65;4.62;;;;;;;24.51;73.75;98949.53;4468946;32;34924;-80
2022/06/09 09:50:18;;;;;;;7.32;4.75;;;;;;;25.16;74.95;98938.09;4477632;32;34948;-81
2022/06/09 09:53:20;;;;;;;6.82;4.50;;;;;;;25.51;71.55;98937.47;4469785;32;34686;-81
2022/06/09 09:56:15;;;;;;;8.13;4.82;;;;;;;25.84;64.01;98937.66;4473720;32;34218;-80
2022/06/09 09:59:17;;;;;;;6.70;4.90;;;;;;;25.41;64.15;98948.87;4464636;32;34606;-81
2022/06/09 10:08:46;;;;;;;7.82;5.20;;;;;;;25.40;67.06;98922.84;4465519;32;34174;-82
2022/06/09 10:11:57;;;;;;;7.82;4.72;;;;;;;25.80;67.63;98920.09;4452044;32;34223;-83
2022/06/09 10:14:45;;;;;;;7.25;4.97;;;;;;;26.28;63.77;98920.72;4461987;32;34655;-81
2022/06/09 10:17:59;;;;;;;7.55;5.12;;;;;;;24.83;65.72;98909.81;4463287;32;34372;-82
2022/06/09 10:21:10;;;;;;;6.47;4.75;;;;;;;25.98;63.16;98905.72;4457823;32;34212;-82
2022/06/09 10:27:20;;;;;;;9.20;5.53;;;;;;;24.01;67.50;98918.16;4451858;32;35881;-83
2022/06/09 10:30:29;;;;;;;9.50;5.80;;;;;;;24.79;67.07;98923.06;4449891;32;34489;-82
2022/06/09 10:33:41;;;;;;;7.68;5.43;;;;;;;24.89;71.24;98920.09;4442922;32;33613;-83
2022/06/09 10:36:42;;;;;;;8.27;6.05;;;;;;;24.85;67.86;98927.00;4452983;32;34682;-83
2022/06/09 10:39:43;;;;;;;9.20;5.80;;;;;;;25.15;63.89;98916.91;4450334;32;34951;-83
2022/06/09 10:42:36;;;;;;;8.35;5.93;;;;;;;25.29;64.50;98919.44;4447592;32;34451;-82
2022/06/09 10:45:42;;;;;;;9.55;6.20;;;;;;;25.45;68.22;98913.94;4440387;32;35180;-82
2022/06/09 10:55:45;;;;;;;8.00;5.75;;;;;;;23.22;70.62;98884.66;4440464;32;35349;-82
2022/06/09 10:58:37;;;;;;;8.70;6.50;;;;;;;24.08;72.93;98875.31;4436007;32;33436;-82
2022/06/09 11:01:30;;;;;;;9.63;5.85;;;;;;;24.09;67.14;98882.47;4458941;32;35491;-82
2022/06/09 11:04:18;;;;;;;7.75;5.75;;;;;;;25.37;64.97;98872.47;4435803;32;35963;-80
2022/06/09 11:07:43;;;;;;;9.32;6.57;;;;;;;25.00;60.44;98885.50;4436846;32;34653;-81
2022/06/09 11:10:49;;;;;;;9.77;6.00;;;;;;;25.41;61.99;98873.16;4435646;32;34144;-81
2022/06/09 11:13:52;;;;;;;7.28;5.65;;;;;;;26.03;58.69;98880.72;4425201;32;34150;-80
2022/06/09 11:17:07;;;;;;;9.57;7.03;;;;;;;26.64;60.87;98870.94;4448459;32;34912;-82
2022/06/09 11:20:39;;;;;;;9.88;7.25;;;;;;;25.95;60.45;98870.88;4448310;32;34429;-81
2022/06/09 11:23:44;;;;;;;8.45;6.97;;;;;;;26.55;58.17;98861.53;4436521;32;34972;-82
2022/06/09 11:26:46;;;;;;;9.25;6.50;;;;;;;26.10;57.54;98856.53;4436406;32;34241;-82
2022/06/09 11:29:36;;;;;;;;;;;;;;;26.27;60.50;98841.31;4424307;32;34894;-82
2022/06/09 11:32:40;;;;;;;8.50;5.78;;;;;;;25.99;61.44;98837.94;4440358;32;35674;-81
2022/06/09 11:35:45;;;;;;;10.05;6.70;;;;;;;25.81;61.10;98834.66;4462744;32;33742;-80
2022/06/09 11:39:07;;;;;;;7.60;5.93;;;;;;;23.38;67.44;98841.38;4464320;32;33540;-80
2022/06/09 11:41:59;;;;;;;10.15;6.55;;;;;;;23.34;70.22;98836.63;4465400;32;35006;-82
2022/06/09 11:44:52;;;;;;;9.77;6.25;;;;;;;24.00;68.07;98837.44;4464993;32;34772;-80
2022/06/09 11:47:39;;;;;;;8.43;5.68;;;;;;;23.12;73.67;98830.47;4464887;32;34313;-82
2022/06/09 11:50:36;;;;;;;8.60;5.97;;;;;;;22.84;74.23;98830.75;4464906;32;34689;-82
2022/06/09 11:53:28;;;;;;;10.10;5.97;;;;;;;22.70;78.42;98834.44;4464940;32;34750;-80
2022/06/09 11:56:43;;;;;;;10.23;6.90;;;;;;;22.02;81.25;98846.84;4464956;32;34472;-80
2022/06/09 11:59:56;;;;;;;7.45;4.90;;;;;;;22.05;86.43;98844.47;4464987;32;33772;-81
2022/06/09 12:03:05;;;;;;;10.18;4.07;;;;;;;21.53;87.86;98918.37;4464834;32;35637;-79
2022/06/09 12:06:12;;;;;;;18.55;4.25;;;;;;;20.19;94.25;98993.81;4463637;32;34777;-76
2022/06/09 12:09:09;;;;;;;12.00;2.90;;;;;;;19.02;97.59;99021.59;4464631;32;34546;-80
2022/06/09 12:12:25;;;;;;;2.95;1.23;;;;;;;17.15;100.00;98968.50;4481349;32;34841;-78
2022/06/09 12:15:23;;;;;;;3.10;1.80;;;;;;;17.64;87.81;98905.91;4464512;32;35455;-79
2022/06/09 12:18:17;;;;;;;2.50;1.45;;;;;;;17.16;96.49;98872.41;4462218;32;36060;-77
2022/06/09 12:21:09;;;;;;;5.80;2.00;;;;;;;16.70;100.00;98875.25;4462821;32;34631;-76
2022/06/09 12:24:17;;;;;;;6.03;1.67;;;;;;;16.29;100.00;98889.56;4464967;32;34117;-75
2022/06/09 12:27:21;;;;;;;6.22;2.35;;;;;;;16.44;100.00;98887.06;4473708;32;35565;-75
2022/06/09 12:30:27;;;;;;;4.57;1.65;;;;;;;16.19;100.00;98896.50;4477584;32;34576;-75
2022/06/09 12:33:21;;;;;;;4.87;1.80;;;;;;;16.38;100.00;98909.47;4465613;32;34648;-75
2022/06/09 12:36:12;;;;;;;4.30;2.00;;;;;;;17.59;100.00;98922.84;4464730;32;35067;-75
2022/06/09 12:39:01;;;;;;;5.25;2.25;;;;;;;17.38;100.00;98921.38;4463267;32;34658;-76
2022/06/09 12:42:01;;;;;;;6.50;2.40;;;;;;;16.99;100.00;98909.72;4459452;32;35656;-76
2022/06/09 12:45:35;;;;;;;8.27;2.55;;;;;;;17.50;100.00;98907.31;4457795;32;34366;-75
2022/06/09 12:48:29;;;;;;;5.05;2.40;;;;;;;18.19;100.00;98908.97;4409495;32;34241;-77
2022/06/09 12:51:24;;;;;;;12.15;3.03;;;;;;;18.80;99.87;98904.81;4404631;32;34587;-77
2022/06/09 12:54:21;;;;;;;7.72;2.58;;;;;;;19.53;98.42;98898.56;4464416;32;33943;-76
2022/06/09 12:57:19;;;;;;;6.93;2.30;;;;;;;19.94;98.12;98898.38;4458002;32;35462;-77
2022/06/09 13:03:56;;;;;;;6.93;1.60;;;;;;;18.28;94.55;98916.97;4465024;32;34660;-78
2022/06/09 13:06:50;;;;;;;2.58;1.35;;;;;;;18.33;98.51;98917.44;4463792;32;34965;-74
2022/06/09 13:09:36;;;;;;;3.55;1.52;;;;;;;18.74;97.72;98917.44;4465969;32;34599;-74
2022/06/09 13:15:46;;;;;;;3.40;1.30;;;;;;;18.52;99.48;98910.06;4459626;32;35507;-73
2022/06/09 13:18:41;;;;;;;3.75;1.55;;;;;;;19.23;99.54;98902.34;4453332;32;34820;-74
2022/06/09 13:21:34;;;;;;;4.32;1.00;;;;;;;19.42;94.02;98894.94;4459960;32;34149;-73
2022/06/09 13:24:28;;;;;;;4.03;1.00;;;;;;;20.36;92.18;98889.34;4462469;32;34704;-73
2022/06/09 13:27:20;;;;;;;4.20;1.10;;;;;;;20.30;90.36;98888.13;4464632;32;34683;-73
2022/06/09 13:30:29;;;;;;;1.98;1.17;;;;;;;20.96;86.95;98865.53;4464305;32;34756;-73
2022/06/09 13:33:45;;;;;;;4.97;1.70;;;;;;;19.79;91.74;98863.38;4463054;32;34233;-73
2022/06/09 13:36:57;;;;;;;4.45;1.65;;;;;;;20.69;92.27;98861.56;4449609;32;34782;-73
2022/06/09 13:39:51;;;;;;;4.07;2.35;;;;;;;20.51;89.37;98869.88;4463333;32;34573;-73
2022/06/09 13:42:57;;;;;;;3.70;1.67;;;;;;;19.98;90.58;98880.50;4463874;32;34501;-73
2022/06/09 13:45:50;;;;;;;4.00;1.30;;;;;;;20.37;89.56;98893.69;4463474;32;34763;-73
2022/06/09 13:49:02;;;;;;;5.32;1.83;;;;;;;21.25;83.98;98907.25;4452554;32;34974;-74
2022/06/09 13:52:01;;;;;;;3.50;1.98;;;;;;;21.38;82.44;98908.47;4453225;32;34628;-73
2022/06/09 13:54:50;;;;;;;4.97;1.80;;;;;;;21.41;82.22;98902.09;4462402;32;35609;-74
2022/06/09 13:57:40;;;;;;;3.28;1.80;;;;;;;20.61;93.38;98903.31;4452622;32;34177;-73